sensor_id;sensor_type;location;lat;lon;timestamp;P1;durP1;ratioP1;P2;durP2;ratioP2
30249;SDS011;17064;47.974;13.826;2023-04-25T00:01:47;4.78;;;1.30;;
30249;SDS011;17064;47.974;13.826;2023-04-25T00:06:47;2.38;;;1.40;;
30249;SDS011;17064;47.974;13.826;2023-04-25T00:11:48;2.17;;;1.77;;
30249;SDS011;17064;47.974;13.826;2023-04-25T00:16:49;6.38;;;3.38;;
30249;SDS011;17064;47.974;13.826;2023-04-25T00:21:51;1.83;;;1.55;;
30249;SDS011;17064;47.974;13.826;2023-04-25T00:26:53;6.32;;;1.73;;
30249;SDS011;17064;47.974;13.826;2023-04-25T00:31:54;4.95;;;1.63;;
30249;SDS011;17064;47.974;13.826;2023-04-25T00:36:54;2.72;;;1.33;;
30249;SDS011;17064;47.974;13.826;2023-04-25T00:41:55;3.83;;;1.52;;
30249;SDS011;17064;47.974;13.826;2023-04-25T00:46:56;2.50;;;1.55;;
30249;SDS011;17064;47.974;13.826;2023-04-25T00:51:58;1.83;;;1.38;;
30249;SDS011;17064;47.974;13.826;2023-04-25T00:56:59;2.60;;;1.40;;
30249;SDS011;17064;47.974;13.826;2023-04-25T01:02:01;1.58;;;1.23;;
30249;SDS011;17064;47.974;13.826;2023-04-25T01:07:01;5.60;;;2.15;;
30249;SDS011;17064;47.974;13.826;2023-04-25T01:12:02;1.67;;;1.45;;
30249;SDS011;17064;47.974;13.826;2023-04-25T01:17:03;2.97;;;1.83;;
30249;SDS011;17064;47.974;13.826;2023-04-25T01:22:04;3.90;;;1.65;;
30249;SDS011;17064;47.974;13.826;2023-04-25T01:27:05;2.45;;;1.67;;
30249;SDS011;17064;47.974;13.826;2023-04-25T01:32:07;1.83;;;1.30;;
30249;SDS011;17064;47.974;13.826;2023-04-25T01:37:08;1.60;;;1.27;;
30249;SDS011;17064;47.974;13.826;2023-04-25T01:42:09;2.47;;;1.70;;
30249;SDS011;17064;47.974;13.826;2023-04-25T01:47:10;3.97;;;1.80;;
30249;SDS011;17064;47.974;13.826;2023-04-25T01:52:11;1.85;;;1.67;;
30249;SDS011;17064;47.974;13.826;2023-04-25T01:57:12;3.58;;;1.90;;
30249;SDS011;17064;47.974;13.826;2023-04-25T02:02:12;4.72;;;1.85;;
30249;SDS011;17064;47.974;13.826;2023-04-25T02:07:13;4.50;;;2.35;;
30249;SDS011;17064;47.974;13.826;2023-04-25T02:12:15;2.45;;;1.88;;
30249;SDS011;17064;47.974;13.826;2023-04-25T02:17:16;2.38;;;1.85;;
30249;SDS011;17064;47.974;13.826;2023-04-25T02:22:17;2.08;;;1.88;;
30249;SDS011;17064;47.974;13.826;2023-04-25T02:27:18;1.77;;;1.52;;
30249;SDS011;17064;47.974;13.826;2023-04-25T02:32:20;2.25;;;1.65;;
30249;SDS011;17064;47.974;13.826;2023-04-25T02:37:21;1.80;;;1.50;;
30249;SDS011;17064;47.974;13.826;2023-04-25T02:42:21;3.80;;;1.92;;
30249;SDS011;17064;47.974;13.826;2023-04-25T02:47:22;3.10;;;2.05;;
30249;SDS011;17064;47.974;13.826;2023-04-25T02:52:23;2.47;;;1.75;;
30249;SDS011;17064;47.974;13.826;2023-04-25T02:57:24;2.17;;;1.75;;
30249;SDS011;17064;47.974;13.826;2023-04-25T03:02:25;2.53;;;1.52;;
30249;SDS011;17064;47.974;13.826;2023-04-25T03:07:26;3.92;;;1.88;;
30249;SDS011;17064;47.974;13.826;2023-04-25T03:12:26;2.42;;;2.13;;
30249;SDS011;17064;47.974;13.826;2023-04-25T03:17:27;3.00;;;2.45;;
30249;SDS011;17064;47.974;13.826;2023-04-25T03:22:28;3.55;;;2.25;;
30249;SDS011;17064;47.974;13.826;2023-04-25T03:27:29;4.25;;;1.90;;
30249;SDS011;17064;47.974;13.826;2023-04-25T03:32:29;5.65;;;2.17;;
30249;SDS011;17064;47.974;13.826;2023-04-25T03:37:30;2.75;;;2.00;;
30249;SDS011;17064;47.974;13.826;2023-04-25T03:42:31;2.85;;;2.28;;
30249;SDS011;17064;47.974;13.826;2023-04-25T03:47:31;3.15;;;2.28;;
30249;SDS011;17064;47.974;13.826;2023-04-25T03:52:33;5.63;;;2.28;;
30249;SDS011;17064;47.974;13.826;2023-04-25T03:57:34;5.05;;;2.40;;
30249;SDS011;17064;47.974;13.826;2023-04-25T04:02:35;3.40;;;2.72;;
30249;SDS011;17064;47.974;13.826;2023-04-25T04:07:37;4.38;;;2.20;;
30249;SDS011;17064;47.974;13.826;2023-04-25T04:12:40;7.27;;;2.90;;
30249;SDS011;17064;47.974;13.826;2023-04-25T04:17:40;3.13;;;2.20;;
30249;SDS011;17064;47.974;13.826;2023-04-25T04:22:41;7.43;;;2.97;;
30249;SDS011;17064;47.974;13.826;2023-04-25T04:27:42;4.30;;;3.05;;
30249;SDS011;17064;47.974;13.826;2023-04-25T04:32:46;3.88;;;3.10;;
30249;SDS011;17064;47.974;13.826;2023-04-25T04:37:47;4.40;;;3.08;;
30249;SDS011;17064;47.974;13.826;2023-04-25T04:42:48;3.95;;;2.88;;
30249;SDS011;17064;47.974;13.826;2023-04-25T04:47:49;5.82;;;2.95;;
30249;SDS011;17064;47.974;13.826;2023-04-25T04:52:50;6.47;;;2.53;;
30249;SDS011;17064;47.974;13.826;2023-04-25T04:57:51;4.28;;;2.55;;
30249;SDS011;17064;47.974;13.826;2023-04-25T05:02:51;5.45;;;2.70;;
30249;SDS011;17064;47.974;13.826;2023-04-25T05:07:52;4.97;;;2.88;;
30249;SDS011;17064;47.974;13.826;2023-04-25T05:12:53;6.28;;;3.33;;
30249;SDS011;17064;47.974;13.826;2023-04-25T05:17:53;7.57;;;3.20;;
30249;SDS011;17064;47.974;13.826;2023-04-25T05:22:55;6.10;;;3.50;;
30249;SDS011;17064;47.974;13.826;2023-04-25T05:27:56;4.22;;;2.45;;
30249;SDS011;17064;47.974;13.826;2023-04-25T05:32:58;2.85;;;2.22;;
30249;SDS011;17064;47.974;13.826;2023-04-25T05:37:59;6.38;;;2.72;;
30249;SDS011;17064;47.974;13.826;2023-04-25T05:42:59;4.35;;;2.35;;
30249;SDS011;17064;47.974;13.826;2023-04-25T05:48:00;4.28;;;2.25;;
30249;SDS011;17064;47.974;13.826;2023-04-25T05:53:01;4.03;;;1.95;;
30249;SDS011;17064;47.974;13.826;2023-04-25T05:58:02;7.90;;;1.98;;
30249;SDS011;17064;47.974;13.826;2023-04-25T06:03:03;2.80;;;2.20;;
30249;SDS011;17064;47.974;13.826;2023-04-25T06:08:04;5.38;;;2.00;;
30249;SDS011;17064;47.974;13.826;2023-04-25T06:13:05;3.45;;;1.55;;
30249;SDS011;17064;47.974;13.826;2023-04-25T06:18:06;4.47;;;2.10;;
30249;SDS011;17064;47.974;13.826;2023-04-25T06:23:07;3.95;;;1.67;;
30249;SDS011;17064;47.974;13.826;2023-04-25T06:28:09;1.77;;;1.40;;
30249;SDS011;17064;47.974;13.826;2023-04-25T06:33:10;4.05;;;1.65;;
30249;SDS011;17064;47.974;13.826;2023-04-25T06:38:10;3.25;;;1.80;;
30249;SDS011;17064;47.974;13.826;2023-04-25T06:43:11;5.07;;;1.52;;
30249;SDS011;17064;47.974;13.826;2023-04-25T06:48:18;5.35;;;1.98;;
30249;SDS011;17064;47.974;13.826;2023-04-25T06:53:19;5.78;;;2.25;;
30249;SDS011;17064;47.974;13.826;2023-04-25T06:58:20;4.10;;;1.70;;
30249;SDS011;17064;47.974;13.826;2023-04-25T07:03:20;4.07;;;2.00;;
30249;SDS011;17064;47.974;13.826;2023-04-25T07:08:21;4.35;;;2.25;;
30249;SDS011;17064;47.974;13.826;2023-04-25T07:13:22;3.47;;;2.05;;
30249;SDS011;17064;47.974;13.826;2023-04-25T07:18:22;5.97;;;2.08;;
30249;SDS011;17064;47.974;13.826;2023-04-25T07:23:23;1.67;;;1.58;;
30249;SDS011;17064;47.974;13.826;2023-04-25T07:28:25;3.53;;;1.80;;
30249;SDS011;17064;47.974;13.826;2023-04-25T07:33:26;2.10;;;1.30;;
30249;SDS011;17064;47.974;13.826;2023-04-25T07:38:27;2.15;;;1.48;;
30249;SDS011;17064;47.974;13.826;2023-04-25T07:43:28;3.13;;;1.30;;
30249;SDS011;17064;47.974;13.826;2023-04-25T07:48:29;2.33;;;1.33;;
30249;SDS011;17064;47.974;13.826;2023-04-25T07:53:29;3.22;;;1.48;;
30249;SDS011;17064;47.974;13.826;2023-04-25T07:58:30;5.28;;;1.20;;
30249;SDS011;17064;47.974;13.826;2023-04-25T08:03:31;2.13;;;1.10;;
30249;SDS011;17064;47.974;13.826;2023-04-25T08:08:31;10.43;;;2.08;;
30249;SDS011;17064;47.974;13.826;2023-04-25T08:13:32;6.75;;;1.00;;
30249;SDS011;17064;47.974;13.826;2023-04-25T08:18:33;4.30;;;1.30;;
30249;SDS011;17064;47.974;13.826;2023-04-25T08:23:34;5.38;;;1.10;;
30249;SDS011;17064;47.974;13.826;2023-04-25T08:28:35;7.10;;;1.13;;
30249;SDS011;17064;47.974;13.826;2023-04-25T08:33:35;2.80;;;1.10;;
30249;SDS011;17064;47.974;13.826;2023-04-25T08:38:36;2.50;;;1.20;;
30249;SDS011;17064;47.974;13.826;2023-04-25T08:43:37;5.72;;;1.73;;
30249;SDS011;17064;47.974;13.826;2023-04-25T08:48:42;2.65;;;1.13;;
30249;SDS011;17064;47.974;13.826;2023-04-25T08:53:44;3.97;;;0.90;;
30249;SDS011;17064;47.974;13.826;2023-04-25T08:58:47;3.43;;;1.30;;
30249;SDS011;17064;47.974;13.826;2023-04-25T09:03:50;2.35;;;1.10;;
30249;SDS011;17064;47.974;13.826;2023-04-25T09:08:52;1.10;;;0.95;;
30249;SDS011;17064;47.974;13.826;2023-04-25T09:14:09;5.93;;;1.20;;
30249;SDS011;17064;47.974;13.826;2023-04-25T09:19:25;5.35;;;1.48;;
30249;SDS011;17064;47.974;13.826;2023-04-25T09:24:35;2.20;;;0.85;;
30249;SDS011;17064;47.974;13.826;2023-04-25T09:29:38;1.45;;;0.80;;
30249;SDS011;17064;47.974;13.826;2023-04-25T09:34:41;4.20;;;1.00;;
30249;SDS011;17064;47.974;13.826;2023-04-25T09:39:44;3.80;;;0.90;;
30249;SDS011;17064;47.974;13.826;2023-04-25T09:44:46;2.25;;;0.80;;
30249;SDS011;17064;47.974;13.826;2023-04-25T09:49:47;3.63;;;0.85;;
30249;SDS011;17064;47.974;13.826;2023-04-25T09:54:48;2.17;;;1.08;;
30249;SDS011;17064;47.974;13.826;2023-04-25T09:59:53;9.05;;;1.73;;
30249;SDS011;17064;47.974;13.826;2023-04-25T10:04:55;3.72;;;1.20;;
30249;SDS011;17064;47.974;13.826;2023-04-25T10:10:00;1.42;;;1.10;;
30249;SDS011;17064;47.974;13.826;2023-04-25T10:15:03;3.95;;;1.05;;
30249;SDS011;17064;47.974;13.826;2023-04-25T10:20:04;1.98;;;1.02;;
30249;SDS011;17064;47.974;13.826;2023-04-25T10:25:10;2.75;;;1.00;;
30249;SDS011;17064;47.974;13.826;2023-04-25T10:30:14;3.22;;;1.15;;
30249;SDS011;17064;47.974;13.826;2023-04-25T10:35:19;2.10;;;1.10;;
30249;SDS011;17064;47.974;13.826;2023-04-25T10:40:26;10.00;;;2.83;;
30249;SDS011;17064;47.974;13.826;2023-04-25T10:45:27;0.80;;;0.60;;
30249;SDS011;17064;47.974;13.826;2023-04-25T10:50:36;1.38;;;0.68;;
30249;SDS011;17064;47.974;13.826;2023-04-25T10:55:49;0.80;;;0.55;;
30249;SDS011;17064;47.974;13.826;2023-04-25T11:00:50;1.17;;;0.82;;
30249;SDS011;17064;47.974;13.826;2023-04-25T11:05:51;3.15;;;0.65;;
30249;SDS011;17064;47.974;13.826;2023-04-25T11:10:53;2.03;;;0.70;;
30249;SDS011;17064;47.974;13.826;2023-04-25T11:15:54;3.22;;;1.13;;
30249;SDS011;17064;47.974;13.826;2023-04-25T11:20:55;3.17;;;1.48;;
30249;SDS011;17064;47.974;13.826;2023-04-25T11:25:56;3.10;;;1.30;;
30249;SDS011;17064;47.974;13.826;2023-04-25T11:30:57;1.85;;;1.38;;
30249;SDS011;17064;47.974;13.826;2023-04-25T11:35:58;2.30;;;1.40;;
30249;SDS011;17064;47.974;13.826;2023-04-25T11:40:59;2.47;;;1.23;;
30249;SDS011;17064;47.974;13.826;2023-04-25T11:46:00;3.53;;;1.73;;
30249;SDS011;17064;47.974;13.826;2023-04-25T11:51:01;3.63;;;1.00;;
30249;SDS011;17064;47.974;13.826;2023-04-25T11:56:01;2.33;;;1.05;;
30249;SDS011;17064;47.974;13.826;2023-04-25T12:01:10;4.45;;;1.23;;
30249;SDS011;17064;47.974;13.826;2023-04-25T12:06:10;1.77;;;1.20;;
30249;SDS011;17064;47.974;13.826;2023-04-25T12:11:20;3.30;;;1.48;;
30249;SDS011;17064;47.974;13.826;2023-04-25T12:16:21;2.80;;;1.08;;
30249;SDS011;17064;47.974;13.826;2023-04-25T12:21:22;3.10;;;1.20;;
30249;SDS011;17064;47.974;13.826;2023-04-25T12:26:23;2.38;;;1.33;;
30249;SDS011;17064;47.974;13.826;2023-04-25T12:31:25;2.10;;;1.17;;
30249;SDS011;17064;47.974;13.826;2023-04-25T12:36:26;2.20;;;0.93;;
30249;SDS011;17064;47.974;13.826;2023-04-25T12:41:26;2.85;;;1.10;;
30249;SDS011;17064;47.974;13.826;2023-04-25T12:46:27;3.08;;;1.10;;
30249;SDS011;17064;47.974;13.826;2023-04-25T12:51:28;3.75;;;0.80;;
30249;SDS011;17064;47.974;13.826;2023-04-25T12:56:29;2.95;;;0.95;;
30249;SDS011;17064;47.974;13.826;2023-04-25T13:01:30;2.65;;;1.02;;
30249;SDS011;17064;47.974;13.826;2023-04-25T13:06:30;0.93;;;0.60;;
30249;SDS011;17064;47.974;13.826;2023-04-25T13:11:31;5.88;;;1.00;;
30249;SDS011;17064;47.974;13.826;2023-04-25T13:16:32;0.60;;;0.38;;
30249;SDS011;17064;47.974;13.826;2023-04-25T13:21:33;2.20;;;1.00;;
30249;SDS011;17064;47.974;13.826;2023-04-25T13:26:34;1.40;;;0.75;;
30249;SDS011;17064;47.974;13.826;2023-04-25T13:31:34;1.73;;;0.82;;
30249;SDS011;17064;47.974;13.826;2023-04-25T13:36:35;1.08;;;0.80;;
30249;SDS011;17064;47.974;13.826;2023-04-25T13:41:36;0.90;;;0.60;;
30249;SDS011;17064;47.974;13.826;2023-04-25T13:46:37;2.38;;;0.73;;
30249;SDS011;17064;47.974;13.826;2023-04-25T13:51:38;1.73;;;0.70;;
30249;SDS011;17064;47.974;13.826;2023-04-25T13:56:38;3.05;;;0.98;;
30249;SDS011;17064;47.974;13.826;2023-04-25T14:06:42;2.28;;;0.73;;
30249;SDS011;17064;47.974;13.826;2023-04-25T14:11:43;1.13;;;0.77;;
30249;SDS011;17064;47.974;13.826;2023-04-25T14:16:44;2.03;;;1.20;;
30249;SDS011;17064;47.974;13.826;2023-04-25T14:21:46;3.00;;;0.90;;
30249;SDS011;17064;47.974;13.826;2023-04-25T14:26:47;1.17;;;0.70;;
30249;SDS011;17064;47.974;13.826;2023-04-25T14:31:47;2.83;;;0.88;;
30249;SDS011;17064;47.974;13.826;2023-04-25T14:36:48;1.48;;;1.00;;
30249;SDS011;17064;47.974;13.826;2023-04-25T14:41:52;1.45;;;0.80;;
30249;SDS011;17064;47.974;13.826;2023-04-25T14:46:53;1.75;;;0.98;;
30249;SDS011;17064;47.974;13.826;2023-04-25T14:51:54;2.05;;;1.00;;
30249;SDS011;17064;47.974;13.826;2023-04-25T14:56:54;1.08;;;0.93;;
30249;SDS011;17064;47.974;13.826;2023-04-25T15:01:55;0.90;;;0.70;;
30249;SDS011;17064;47.974;13.826;2023-04-25T15:06:56;2.83;;;1.73;;
30249;SDS011;17064;47.974;13.826;2023-04-25T15:11:57;3.13;;;1.30;;
30249;SDS011;17064;47.974;13.826;2023-04-25T15:16:58;5.57;;;1.10;;
30249;SDS011;17064;47.974;13.826;2023-04-25T15:22:00;1.20;;;0.95;;
30249;SDS011;17064;47.974;13.826;2023-04-25T15:27:01;1.25;;;1.00;;
30249;SDS011;17064;47.974;13.826;2023-04-25T15:32:02;1.08;;;0.80;;
30249;SDS011;17064;47.974;13.826;2023-04-25T15:37:03;1.70;;;0.90;;
30249;SDS011;17064;47.974;13.826;2023-04-25T15:42:04;1.15;;;0.70;;
30249;SDS011;17064;47.974;13.826;2023-04-25T15:47:05;0.65;;;0.65;;
30249;SDS011;17064;47.974;13.826;2023-04-25T15:52:05;1.45;;;0.80;;
30249;SDS011;17064;47.974;13.826;2023-04-25T15:57:07;2.80;;;0.68;;
30249;SDS011;17064;47.974;13.826;2023-04-25T16:02:12;1.63;;;1.20;;
30249;SDS011;17064;47.974;13.826;2023-04-25T16:07:13;4.18;;;1.30;;
30249;SDS011;17064;47.974;13.826;2023-04-25T16:12:14;3.03;;;0.77;;
30249;SDS011;17064;47.974;13.826;2023-04-25T16:17:15;1.58;;;0.65;;
30249;SDS011;17064;47.974;13.826;2023-04-25T16:22:16;1.92;;;0.88;;
30249;SDS011;17064;47.974;13.826;2023-04-25T16:27:17;2.13;;;0.75;;
30249;SDS011;17064;47.974;13.826;2023-04-25T16:32:18;1.50;;;0.90;;
30249;SDS011;17064;47.974;13.826;2023-04-25T16:37:18;1.00;;;0.93;;
30249;SDS011;17064;47.974;13.826;2023-04-25T16:42:19;2.00;;;0.80;;
30249;SDS011;17064;47.974;13.826;2023-04-25T16:47:20;2.33;;;1.45;;
30249;SDS011;17064;47.974;13.826;2023-04-25T16:52:21;0.70;;;0.60;;
30249;SDS011;17064;47.974;13.826;2023-04-25T16:57:22;0.90;;;0.60;;
30249;SDS011;17064;47.974;13.826;2023-04-25T17:02:23;0.60;;;0.60;;
30249;SDS011;17064;47.974;13.826;2023-04-25T17:07:24;1.75;;;0.95;;
30249;SDS011;17064;47.974;13.826;2023-04-25T17:12:25;1.00;;;0.65;;
30249;SDS011;17064;47.974;13.826;2023-04-25T17:17:26;1.45;;;0.60;;
30249;SDS011;17064;47.974;13.826;2023-04-25T17:22:27;1.92;;;0.60;;
30249;SDS011;17064;47.974;13.826;2023-04-25T17:27:28;1.52;;;0.70;;
30249;SDS011;17064;47.974;13.826;2023-04-25T17:32:30;2.20;;;1.00;;
30249;SDS011;17064;47.974;13.826;2023-04-25T17:37:31;2.22;;;1.20;;
30249;SDS011;17064;47.974;13.826;2023-04-25T17:42:32;2.78;;;0.90;;
30249;SDS011;17064;47.974;13.826;2023-04-25T17:47:34;1.10;;;1.00;;
30249;SDS011;17064;47.974;13.826;2023-04-25T17:52:35;2.38;;;1.35;;
30249;SDS011;17064;47.974;13.826;2023-04-25T17:57:37;0.80;;;0.73;;
30249;SDS011;17064;47.974;13.826;2023-04-25T18:02:38;1.60;;;0.98;;
30249;SDS011;17064;47.974;13.826;2023-04-25T18:07:39;7.57;;;1.00;;
30249;SDS011;17064;47.974;13.826;2023-04-25T18:12:41;2.78;;;0.90;;
30249;SDS011;17064;47.974;13.826;2023-04-25T18:17:42;1.45;;;1.00;;
30249;SDS011;17064;47.974;13.826;2023-04-25T18:22:43;1.30;;;1.05;;
30249;SDS011;17064;47.974;13.826;2023-04-25T18:27:45;1.10;;;0.90;;
30249;SDS011;17064;47.974;13.826;2023-04-25T18:32:46;3.60;;;1.27;;
30249;SDS011;17064;47.974;13.826;2023-04-25T18:37:48;2.35;;;1.00;;
30249;SDS011;17064;47.974;13.826;2023-04-25T18:42:50;1.20;;;0.98;;
30249;SDS011;17064;47.974;13.826;2023-04-25T18:47:51;0.95;;;0.88;;
30249;SDS011;17064;47.974;13.826;2023-04-25T18:52:53;1.50;;;0.95;;
30249;SDS011;17064;47.974;13.826;2023-04-25T18:57:54;0.80;;;0.80;;
30249;SDS011;17064;47.974;13.826;2023-04-25T19:02:55;1.27;;;1.17;;
30249;SDS011;17064;47.974;13.826;2023-04-25T19:08:02;2.33;;;1.20;;
30249;SDS011;17064;47.974;13.826;2023-04-25T19:13:03;2.70;;;1.85;;
30249;SDS011;17064;47.974;13.826;2023-04-25T19:18:04;3.67;;;2.08;;
30249;SDS011;17064;47.974;13.826;2023-04-25T19:23:07;2.88;;;1.90;;
30249;SDS011;17064;47.974;13.826;2023-04-25T19:28:09;4.00;;;1.80;;
30249;SDS011;17064;47.974;13.826;2023-04-25T19:33:11;3.10;;;1.85;;
30249;SDS011;17064;47.974;13.826;2023-04-25T19:38:13;2.95;;;2.05;;
30249;SDS011;17064;47.974;13.826;2023-04-25T19:43:14;3.28;;;1.10;;
30249;SDS011;17064;47.974;13.826;2023-04-25T19:48:15;1.30;;;1.20;;
30249;SDS011;17064;47.974;13.826;2023-04-25T19:53:16;2.95;;;1.90;;
30249;SDS011;17064;47.974;13.826;2023-04-25T19:58:17;3.28;;;2.08;;
30249;SDS011;17064;47.974;13.826;2023-04-25T20:03:20;3.03;;;2.30;;
30249;SDS011;17064;47.974;13.826;2023-04-25T20:08:20;4.53;;;2.50;;
30249;SDS011;17064;47.974;13.826;2023-04-25T20:13:21;5.38;;;2.70;;
30249;SDS011;17064;47.974;13.826;2023-04-25T20:18:22;4.22;;;3.22;;
30249;SDS011;17064;47.974;13.826;2023-04-25T20:23:23;6.75;;;3.58;;
30249;SDS011;17064;47.974;13.826;2023-04-25T20:28:24;4.20;;;3.45;;
30249;SDS011;17064;47.974;13.826;2023-04-25T20:33:26;6.15;;;3.80;;
30249;SDS011;17064;47.974;13.826;2023-04-25T20:38:27;5.05;;;3.88;;
30249;SDS011;17064;47.974;13.826;2023-04-25T20:43:27;5.72;;;3.83;;
30249;SDS011;17064;47.974;13.826;2023-04-25T20:48:29;8.48;;;3.97;;
30249;SDS011;17064;47.974;13.826;2023-04-25T20:53:30;5.85;;;3.97;;
30249;SDS011;17064;47.974;13.826;2023-04-25T20:58:30;5.72;;;3.92;;
30249;SDS011;17064;47.974;13.826;2023-04-25T21:03:32;6.68;;;3.72;;
30249;SDS011;17064;47.974;13.826;2023-04-25T21:08:34;4.65;;;3.35;;
30249;SDS011;17064;47.974;13.826;2023-04-25T21:13:35;5.85;;;3.85;;
30249;SDS011;17064;47.974;13.826;2023-04-25T21:18:35;6.65;;;3.78;;
30249;SDS011;17064;47.974;13.826;2023-04-25T21:23:36;6.88;;;4.53;;
30249;SDS011;17064;47.974;13.826;2023-04-25T21:28:37;5.40;;;3.70;;
30249;SDS011;17064;47.974;13.826;2023-04-25T21:33:37;6.60;;;4.05;;
30249;SDS011;17064;47.974;13.826;2023-04-25T21:38:38;8.05;;;4.60;;
30249;SDS011;17064;47.974;13.826;2023-04-25T21:43:39;7.25;;;4.75;;
30249;SDS011;17064;47.974;13.826;2023-04-25T21:48:40;6.03;;;3.97;;
30249;SDS011;17064;47.974;13.826;2023-04-25T21:53:40;8.90;;;4.55;;
30249;SDS011;17064;47.974;13.826;2023-04-25T21:58:41;6.35;;;4.30;;
30249;SDS011;17064;47.974;13.826;2023-04-25T22:03:42;10.15;;;6.03;;
30249;SDS011;17064;47.974;13.826;2023-04-25T22:08:42;10.57;;;4.50;;
30249;SDS011;17064;47.974;13.826;2023-04-25T22:13:43;5.15;;;3.88;;
30249;SDS011;17064;47.974;13.826;2023-04-25T22:18:44;7.75;;;4.30;;
30249;SDS011;17064;47.974;13.826;2023-04-25T22:23:45;8.05;;;3.83;;
30249;SDS011;17064;47.974;13.826;2023-04-25T22:28:46;6.63;;;3.58;;
30249;SDS011;17064;47.974;13.826;2023-04-25T22:33:46;6.93;;;4.43;;
30249;SDS011;17064;47.974;13.826;2023-04-25T22:38:47;7.32;;;4.00;;
30249;SDS011;17064;47.974;13.826;2023-04-25T22:43:48;6.40;;;4.25;;
30249;SDS011;17064;47.974;13.826;2023-04-25T22:48:48;9.15;;;4.40;;
30249;SDS011;17064;47.974;13.826;2023-04-25T22:53:49;6.07;;;4.00;;
30249;SDS011;17064;47.974;13.826;2023-04-25T22:58:50;9.13;;;4.45;;
30249;SDS011;17064;47.974;13.826;2023-04-25T23:03:51;6.05;;;3.92;;
30249;SDS011;17064;47.974;13.826;2023-04-25T23:08:52;10.90;;;3.97;;
30249;SDS011;17064;47.974;13.826;2023-04-25T23:13:53;5.72;;;3.63;;
30249;SDS011;17064;47.974;13.826;2023-04-25T23:18:54;6.75;;;4.10;;
30249;SDS011;17064;47.974;13.826;2023-04-25T23:23:54;6.60;;;3.85;;
30249;SDS011;17064;47.974;13.826;2023-04-25T23:28:55;7.68;;;4.05;;
30249;SDS011;17064;47.974;13.826;2023-04-25T23:33:56;6.63;;;3.85;;
30249;SDS011;17064;47.974;13.826;2023-04-25T23:38:56;7.53;;;4.32;;
30249;SDS011;17064;47.974;13.826;2023-04-25T23:43:59;7.17;;;3.97;;
30249;SDS011;17064;47.974;13.826;2023-04-25T23:49:00;11.68;;;4.07;;
30249;SDS011;17064;47.974;13.826;2023-04-25T23:54:03;6.22;;;4.18;;
30249;SDS011;17064;47.974;13.826;2023-04-25T23:59:04;6.50;;;4.03;;
